RJOO/ITM METAR and TAF weather

Enter ICAO airport designator
Station Type Date Time Source
RJOO METAR 2020/01/23 11:00 UTC NOAA

RJOO 231100Z VRB01KT 6000 BR FEW003 SCT006 BKN012 11/10 Q1020


Station Type Date Time Source
RJOO Decoded METAR 2020/01/23 11:00 UTC NOAA

Osaka International Airport, Japan (RJOO) 34-47N 135-27E 15M
Jan 23, 2020 - 06:00 AM EST / 2020.01.23 1100 UTC
Wind: Variable at 1 MPH (1 KT):0
Visibility: 3 mile(s):0
Sky conditions: mostly cloudy
Weather: mist
Temperature: 51 F (11 C)
Dew Point: 50 F (10 C)
Relative Humidity: 93%
Pressure (altimeter): 30.12 in. Hg (1020 hPa)
ob: RJOO 231100Z VRB01KT 6000 BR FEW003 SCT006 BKN012 11/10 Q1020
cycle: 11

Station Type Date Time Source
RJOO TAF 2020/01/23 18:28 UTC NOAA

TAF RJOO 231706Z 2318/2500 32004KT 7000 FEW015 BKN030
TEMPO 2318/2400 4000 BR

Example: see airport list